Arrey, New Mexico
Current Conditions -  °F | °C
As of 5:53 PM on Tuesday 25 Nov 2014 (Local Time) from KTCS Reporting Station
Clear Clear  
Wind Chill: 45°   Ceiling: Unl
Heat Index: 49°   Visibility: 10mi
Dew Point: -1°   Wind: 10mph
Humidity: 13%   Direction: 190°S
Pressure: 30.26"   Gusts: NA
Location:  32.79°N, 107.32°W
Report Text: KTCS 260053Z AUTO 19009KT 10SM CLR 09/M18 A3026 RMK AO2 SLP237 T00941183 TSNO
Loading
Personal Weather Stations






























Interactive Weather Map New forecast layout! Learn more

10-Day Weather Forecast

Advertisements
Track Severe Weather on mobile